<?xml version='1.0' encoding='UTF-8'?><gpx version="1.1" creator="JPX - https://github.com/jenetics/jpx" xmlns="http://www.topografix.com/GPX/1/1"><trk><trkseg><trkpt lat="42.9343733" lon="10.766525"><ele>22.0</ele><time>2026-05-02T13:44:38.581Z</time></trkpt><trkpt lat="42.934305" lon="10.766415"><ele>22.0</ele><time>2026-05-02T13:45:07.58Z</time></trkpt><trkpt lat="42.9342917" lon="10.7663017"><ele>22.0</ele><time>2026-05-02T13:45:08.582Z</time></trkpt><trkpt lat="42.9342717" lon="10.7661567"><ele>22.0</ele><time>2026-05-02T13:45:09.579Z</time></trkpt><trkpt lat="42.934245" lon="10.7659783"><ele>22.0</ele><time>2026-05-02T13:45:10.579Z</time></trkpt><trkpt lat="42.9342133" lon="10.765785"><ele>21.333333333333332</ele><time>2026-05-02T13:45:11.579Z</time></trkpt><trkpt lat="42.9341833" lon="10.76558"><ele>20.666666666666668</ele><time>2026-05-02T13:45:12.58Z</time></trkpt><trkpt lat="42.9341433" lon="10.7653567"><ele>20.0</ele><time>2026-05-02T13:45:13.58Z</time></trkpt><trkpt lat="42.9341017" lon="10.76512"><ele>19.666666666666668</ele><time>2026-05-02T13:45:14.58Z</time></trkpt><trkpt lat="42.9340583" lon="10.7648683"><ele>19.333333333333332</ele><time>2026-05-02T13:45:15.58Z</time></trkpt><trkpt lat="42.9340167" lon="10.764605"><ele>19.0</ele><time>2026-05-02T13:45:16.579Z</time></trkpt><trkpt lat="42.933975" lon="10.76434"><ele>18.333333333333332</ele><time>2026-05-02T13:45:17.58Z</time></trkpt><trkpt lat="42.9339383" lon="10.7640867"><ele>17.666666666666668</ele><time>2026-05-02T13:45:18.58Z</time></trkpt><trkpt lat="42.9339033" lon="10.763845"><ele>17.0</ele><time>2026-05-02T13:45:19.583Z</time></trkpt><trkpt lat="42.9338683" lon="10.7636183"><ele>16.0</ele><time>2026-05-02T13:45:20.58Z</time></trkpt><trkpt lat="42.9338333" lon="10.7633967"><ele>15.0</ele><time>2026-05-02T13:45:21.582Z</time></trkpt><trkpt lat="42.9338017" lon="10.763185"><ele>14.0</ele><time>2026-05-02T13:45:22.579Z</time></trkpt><trkpt lat="42.93377" lon="10.7629867"><ele>14.0</ele><time>2026-05-02T13:45:23.581Z</time></trkpt><trkpt lat="42.9337367" lon="10.7627983"><ele>14.0</ele><time>2026-05-02T13:45:24.579Z</time></trkpt><trkpt lat="42.9336983" lon="10.7626233"><ele>14.0</ele><time>2026-05-02T13:45:25.579Z</time></trkpt><trkpt lat="42.9336583" lon="10.7624667"><ele>14.0</ele><time>2026-05-02T13:45:26.583Z</time></trkpt><trkpt lat="42.9336217" lon="10.7623283"><ele>14.500000000000002</ele><time>2026-05-02T13:45:27.58Z</time></trkpt><trkpt lat="42.9335933" lon="10.7622083"><ele>15.0</ele><time>2026-05-02T13:45:28.579Z</time></trkpt><trkpt lat="42.9335767" lon="10.762095"><ele>15.5</ele><time>2026-05-02T13:45:29.583Z</time></trkpt><trkpt lat="42.9335733" lon="10.7619867"><ele>16.0</ele><time>2026-05-02T13:45:30.582Z</time></trkpt><trkpt lat="42.9335717" lon="10.7618883"><ele>16.5</ele><time>2026-05-02T13:45:31.579Z</time></trkpt><trkpt lat="42.9335483" lon="10.7617417"><ele>17.0</ele><time>2026-05-02T13:45:33.58Z</time></trkpt><trkpt lat="42.9334567" lon="10.7616783"><ele>17.0</ele><time>2026-05-02T13:45:35.58Z</time></trkpt><trkpt lat="42.933355" lon="10.7617117"><ele>17.0</ele><time>2026-05-02T13:45:37.583Z</time></trkpt><trkpt lat="42.9333183" lon="10.76179"><ele>17.0</ele><time>2026-05-02T13:45:38.58Z</time></trkpt><trkpt lat="42.933305" lon="10.7618967"><ele>17.0</ele><time>2026-05-02T13:45:39.579Z</time></trkpt><trkpt lat="42.933335" lon="10.7619967"><ele>17.0</ele><time>2026-05-02T13:45:40.581Z</time></trkpt><trkpt lat="42.9333783" lon="10.7620817"><ele>17.0</ele><time>2026-05-02T13:45:41.581Z</time></trkpt><trkpt lat="42.9334733" lon="10.762175"><ele>17.25</ele><time>2026-05-02T13:45:42.581Z</time></trkpt><trkpt lat="42.9335483" lon="10.7622767"><ele>17.5</ele><time>2026-05-02T13:45:43.581Z</time></trkpt><trkpt lat="42.9336" lon="10.7624017"><ele>17.75</ele><time>2026-05-02T13:45:44.583Z</time></trkpt><trkpt lat="42.9336433" lon="10.76255"><ele>18.0</ele><time>2026-05-02T13:45:45.579Z</time></trkpt><trkpt lat="42.9336817" lon="10.7627233"><ele>16.666666666666668</ele><time>2026-05-02T13:45:46.579Z</time></trkpt><trkpt lat="42.93372" lon="10.7629167"><ele>15.333333333333334</ele><time>2026-05-02T13:45:47.579Z</time></trkpt><trkpt lat="42.9337583" lon="10.7631167"><ele>14.0</ele><time>2026-05-02T13:45:48.58Z</time></trkpt><trkpt lat="42.933795" lon="10.7633283"><ele>15.0</ele><time>2026-05-02T13:45:49.581Z</time></trkpt><trkpt lat="42.9338317" lon="10.7635533"><ele>16.0</ele><time>2026-05-02T13:45:50.581Z</time></trkpt><trkpt lat="42.933865" lon="10.763785"><ele>17.0</ele><time>2026-05-02T13:45:51.58Z</time></trkpt><trkpt lat="42.9339017" lon="10.7640217"><ele>17.0</ele><time>2026-05-02T13:45:52.579Z</time></trkpt><trkpt lat="42.9339417" lon="10.76427"><ele>17.0</ele><time>2026-05-02T13:45:53.58Z</time></trkpt><trkpt lat="42.9339817" lon="10.764535"><ele>17.0</ele><time>2026-05-02T13:45:54.579Z</time></trkpt><trkpt lat="42.9340217" lon="10.7648067"><ele>17.666666666666668</ele><time>2026-05-02T13:45:55.58Z</time></trkpt><trkpt lat="42.9340667" lon="10.7650817"><ele>18.333333333333332</ele><time>2026-05-02T13:45:56.58Z</time></trkpt><trkpt lat="42.9341083" lon="10.765355"><ele>19.0</ele><time>2026-05-02T13:45:57.579Z</time></trkpt><trkpt lat="42.9341483" lon="10.7656233"><ele>19.333333333333332</ele><time>2026-05-02T13:45:58.58Z</time></trkpt><trkpt lat="42.9341817" lon="10.7658867"><ele>19.666666666666668</ele><time>2026-05-02T13:45:59.58Z</time></trkpt><trkpt lat="42.9342133" lon="10.7661483"><ele>20.0</ele><time>2026-05-02T13:46:00.58Z</time></trkpt><trkpt lat="42.9342483" lon="10.7664083"><ele>20.666666666666668</ele><time>2026-05-02T13:46:01.579Z</time></trkpt><trkpt lat="42.934285" lon="10.7666767"><ele>21.333333333333332</ele><time>2026-05-02T13:46:02.58Z</time></trkpt><trkpt lat="42.9343233" lon="10.7669467"><ele>22.0</ele><time>2026-05-02T13:46:03.58Z</time></trkpt><trkpt lat="42.9343717" lon="10.7672183"><ele>22.0</ele><time>2026-05-02T13:46:04.58Z</time></trkpt><trkpt lat="42.934415" lon="10.7674917"><ele>22.0</ele><time>2026-05-02T13:46:05.58Z</time></trkpt><trkpt lat="42.93446" lon="10.7677633"><ele>22.0</ele><time>2026-05-02T13:46:06.58Z</time></trkpt><trkpt lat="42.9344967" lon="10.7680367"><ele>22.0</ele><time>2026-05-02T13:46:07.58Z</time></trkpt><trkpt lat="42.934535" lon="10.76831"><ele>22.0</ele><time>2026-05-02T13:46:08.58Z</time></trkpt><trkpt lat="42.9345783" lon="10.7685817"><ele>22.0</ele><time>2026-05-02T13:46:09.58Z</time></trkpt><trkpt lat="42.93462" lon="10.7688517"><ele>22.333333333333332</ele><time>2026-05-02T13:46:10.58Z</time></trkpt><trkpt lat="42.93466" lon="10.769125"><ele>22.666666666666668</ele><time>2026-05-02T13:46:11.579Z</time></trkpt><trkpt lat="42.9347067" lon="10.7693933"><ele>23.0</ele><time>2026-05-02T13:46:12.579Z</time></trkpt><trkpt lat="42.9347533" lon="10.7696683"><ele>23.333333333333336</ele><time>2026-05-02T13:46:13.58Z</time></trkpt><trkpt lat="42.9347983" lon="10.7699367"><ele>23.666666666666668</ele><time>2026-05-02T13:46:14.58Z</time></trkpt><trkpt lat="42.9348383" lon="10.770215"><ele>24.0</ele><time>2026-05-02T13:46:15.579Z</time></trkpt><trkpt lat="42.93488" lon="10.7704933"><ele>24.0</ele><time>2026-05-02T13:46:16.58Z</time></trkpt><trkpt lat="42.9349217" lon="10.770785"><ele>24.0</ele><time>2026-05-02T13:46:17.58Z</time></trkpt><trkpt lat="42.934965" lon="10.7710767"><ele>24.0</ele><time>2026-05-02T13:46:18.579Z</time></trkpt><trkpt lat="42.93501" lon="10.7713717"><ele>24.0</ele><time>2026-05-02T13:46:19.58Z</time></trkpt><trkpt lat="42.9350617" lon="10.7716683"><ele>24.0</ele><time>2026-05-02T13:46:20.58Z</time></trkpt><trkpt lat="42.9351083" lon="10.771965"><ele>24.0</ele><time>2026-05-02T13:46:21.58Z</time></trkpt><trkpt lat="42.935155" lon="10.772265"><ele>24.0</ele><time>2026-05-02T13:46:22.579Z</time></trkpt><trkpt lat="42.9352017" lon="10.7725633"><ele>24.0</ele><time>2026-05-02T13:46:23.579Z</time></trkpt><trkpt lat="42.93525" lon="10.7728617"><ele>24.0</ele><time>2026-05-02T13:46:24.579Z</time></trkpt><trkpt lat="42.935295" lon="10.7731567"><ele>24.0</ele><time>2026-05-02T13:46:25.58Z</time></trkpt><trkpt lat="42.93534" lon="10.7734367"><ele>24.0</ele><time>2026-05-02T13:46:26.583Z</time></trkpt><trkpt lat="42.935385" lon="10.7737033"><ele>24.0</ele><time>2026-05-02T13:46:27.58Z</time></trkpt><trkpt lat="42.9354267" lon="10.7739617"><ele>23.666666666666668</ele><time>2026-05-02T13:46:28.579Z</time></trkpt><trkpt lat="42.93546" lon="10.7742067"><ele>23.333333333333336</ele><time>2026-05-02T13:46:29.579Z</time></trkpt><trkpt lat="42.9354967" lon="10.77444"><ele>23.0</ele><time>2026-05-02T13:46:30.58Z</time></trkpt><trkpt lat="42.9355267" lon="10.7746683"><ele>23.666666666666668</ele><time>2026-05-02T13:46:31.58Z</time></trkpt><trkpt lat="42.93556" lon="10.7748983"><ele>24.333333333333336</ele><time>2026-05-02T13:46:32.58Z</time></trkpt><trkpt lat="42.9355933" lon="10.7751217"><ele>25.0</ele><time>2026-05-02T13:46:33.579Z</time></trkpt><trkpt lat="42.9356283" lon="10.775335"><ele>25.0</ele><time>2026-05-02T13:46:34.579Z</time></trkpt><trkpt lat="42.9356667" lon="10.7755283"><ele>25.0</ele><time>2026-05-02T13:46:35.579Z</time></trkpt><trkpt lat="42.9357083" lon="10.7757067"><ele>25.0</ele><time>2026-05-02T13:46:36.58Z</time></trkpt><trkpt lat="42.935755" lon="10.7758533"><ele>25.0</ele><time>2026-05-02T13:46:37.579Z</time></trkpt><trkpt lat="42.935795" lon="10.7759733"><ele>25.2</ele><time>2026-05-02T13:46:38.581Z</time></trkpt><trkpt lat="42.935825" lon="10.7760783"><ele>25.4</ele><time>2026-05-02T13:46:39.579Z</time></trkpt><trkpt lat="42.935855" lon="10.7761567"><ele>25.6</ele><time>2026-05-02T13:46:40.579Z</time></trkpt><trkpt lat="42.9358717" lon="10.7763033"><ele>25.8</ele><time>2026-05-02T13:46:42.58Z</time></trkpt><trkpt lat="42.935845" lon="10.7764833"><ele>26.0</ele><time>2026-05-02T13:46:44.581Z</time></trkpt><trkpt lat="42.9358367" lon="10.7765833"><ele>25.999999999999996</ele><time>2026-05-02T13:46:45.58Z</time></trkpt><trkpt lat="42.9358433" lon="10.7766933"><ele>26.0</ele><time>2026-05-02T13:46:46.58Z</time></trkpt><trkpt lat="42.93587" lon="10.7768033"><ele>26.0</ele><time>2026-05-02T13:46:47.58Z</time></trkpt><trkpt lat="42.9359067" lon="10.7769017"><ele>26.0</ele><time>2026-05-02T13:46:48.58Z</time></trkpt><trkpt lat="42.9359583" lon="10.7769817"><ele>25.999999999999996</ele><time>2026-05-02T13:46:49.579Z</time></trkpt><trkpt lat="42.936025" lon="10.77702"><ele>26.0</ele><time>2026-05-02T13:46:50.58Z</time></trkpt><trkpt lat="42.9361167" lon="10.7770283"><ele>26.0</ele><time>2026-05-02T13:46:51.579Z</time></trkpt><trkpt lat="42.936215" lon="10.7770367"><ele>26.0</ele><time>2026-05-02T13:46:52.581Z</time></trkpt><trkpt lat="42.936315" lon="10.777065"><ele>26.0</ele><time>2026-05-02T13:46:53.581Z</time></trkpt><trkpt lat="42.9364133" lon="10.7771167"><ele>26.0</ele><time>2026-05-02T13:46:54.58Z</time></trkpt><trkpt lat="42.9365117" lon="10.7771967"><ele>26.0</ele><time>2026-05-02T13:46:55.579Z</time></trkpt><trkpt lat="42.9366083" lon="10.7773033"><ele>26.0</ele><time>2026-05-02T13:46:56.579Z</time></trkpt><trkpt lat="42.936705" lon="10.77743"><ele>26.0</ele><time>2026-05-02T13:46:57.58Z</time></trkpt><trkpt lat="42.9368067" lon="10.77757"><ele>26.0</ele><time>2026-05-02T13:46:58.58Z</time></trkpt><trkpt lat="42.936915" lon="10.777715"><ele>26.0</ele><time>2026-05-02T13:46:59.584Z</time></trkpt><trkpt lat="42.9370267" lon="10.7778667"><ele>26.0</ele><time>2026-05-02T13:47:00.58Z</time></trkpt><trkpt lat="42.9371417" lon="10.778025"><ele>26.0</ele><time>2026-05-02T13:47:01.581Z</time></trkpt><trkpt lat="42.93726" lon="10.7781883"><ele>26.0</ele><time>2026-05-02T13:47:02.581Z</time></trkpt><trkpt lat="42.937385" lon="10.7783583"><ele>26.0</ele><time>2026-05-02T13:47:03.58Z</time></trkpt><trkpt lat="42.9375133" lon="10.7785267"><ele>26.0</ele><time>2026-05-02T13:47:04.579Z</time></trkpt><trkpt lat="42.9376467" lon="10.77869"><ele>26.0</ele><time>2026-05-02T13:47:05.579Z</time></trkpt><trkpt lat="42.937785" lon="10.7788483"><ele>26.333333333333332</ele><time>2026-05-02T13:47:06.58Z</time></trkpt><trkpt lat="42.93793" lon="10.7790017"><ele>26.666666666666664</ele><time>2026-05-02T13:47:07.579Z</time></trkpt><trkpt lat="42.93808" lon="10.7791483"><ele>27.0</ele><time>2026-05-02T13:47:08.58Z</time></trkpt><trkpt lat="42.9382417" lon="10.7792817"><ele>27.666666666666664</ele><time>2026-05-02T13:47:09.579Z</time></trkpt><trkpt lat="42.9384083" lon="10.7794033"><ele>28.333333333333332</ele><time>2026-05-02T13:47:10.579Z</time></trkpt><trkpt lat="42.9385783" lon="10.7795167"><ele>29.0</ele><time>2026-05-02T13:47:11.58Z</time></trkpt><trkpt lat="42.9387567" lon="10.7796217"><ele>29.0</ele><time>2026-05-02T13:47:12.58Z</time></trkpt><trkpt lat="42.9389367" lon="10.7797133"><ele>29.0</ele><time>2026-05-02T13:47:13.583Z</time></trkpt><trkpt lat="42.9391217" lon="10.77979"><ele>29.0</ele><time>2026-05-02T13:47:14.584Z</time></trkpt><trkpt lat="42.9393083" lon="10.7798517"><ele>29.333333333333332</ele><time>2026-05-02T13:47:15.579Z</time></trkpt><trkpt lat="42.9395" lon="10.7799017"><ele>29.666666666666664</ele><time>2026-05-02T13:47:16.579Z</time></trkpt><trkpt lat="42.939695" lon="10.7799367"><ele>30.0</ele><time>2026-05-02T13:47:17.581Z</time></trkpt><trkpt lat="42.939895" lon="10.77996"><ele>30.0</ele><time>2026-05-02T13:47:18.582Z</time></trkpt><trkpt lat="42.940095" lon="10.7799717"><ele>30.0</ele><time>2026-05-02T13:47:19.582Z</time></trkpt><trkpt lat="42.9402967" lon="10.7799717"><ele>30.0</ele><time>2026-05-02T13:47:20.58Z</time></trkpt><trkpt lat="42.9404967" lon="10.77996"><ele>30.0</ele><time>2026-05-02T13:47:21.58Z</time></trkpt><trkpt lat="42.940695" lon="10.779945"><ele>30.0</ele><time>2026-05-02T13:47:22.58Z</time></trkpt><trkpt lat="42.94089" lon="10.77993"><ele>30.0</ele><time>2026-05-02T13:47:23.582Z</time></trkpt><trkpt lat="42.941085" lon="10.779915"><ele>29.333333333333336</ele><time>2026-05-02T13:47:24.579Z</time></trkpt><trkpt lat="42.9412783" lon="10.779895"><ele>28.666666666666668</ele><time>2026-05-02T13:47:25.579Z</time></trkpt><trkpt lat="42.9414733" lon="10.77988"><ele>28.0</ele><time>2026-05-02T13:47:26.579Z</time></trkpt><trkpt lat="42.9416667" lon="10.779865"><ele>28.666666666666668</ele><time>2026-05-02T13:47:27.582Z</time></trkpt><trkpt lat="42.941865" lon="10.7798467"><ele>29.333333333333336</ele><time>2026-05-02T13:47:28.579Z</time></trkpt><trkpt lat="42.94206" lon="10.7798317"><ele>30.0</ele><time>2026-05-02T13:47:29.579Z</time></trkpt><trkpt lat="42.9422483" lon="10.77982"><ele>30.0</ele><time>2026-05-02T13:47:30.581Z</time></trkpt><trkpt lat="42.9424267" lon="10.7798117"><ele>30.0</ele><time>2026-05-02T13:47:31.581Z</time></trkpt><trkpt lat="42.9425983" lon="10.7798033"><ele>30.0</ele><time>2026-05-02T13:47:32.58Z</time></trkpt><trkpt lat="42.942775" lon="10.7798"><ele>29.666666666666664</ele><time>2026-05-02T13:47:33.58Z</time></trkpt><trkpt lat="42.942945" lon="10.7797933"><ele>29.333333333333332</ele><time>2026-05-02T13:47:34.582Z</time></trkpt><trkpt lat="42.9431133" lon="10.779795"><ele>29.0</ele><time>2026-05-02T13:47:35.58Z</time></trkpt><trkpt lat="42.9432767" lon="10.7798017"><ele>29.0</ele><time>2026-05-02T13:47:36.584Z</time></trkpt><trkpt lat="42.9434367" lon="10.7798233"><ele>29.0</ele><time>2026-05-02T13:47:37.583Z</time></trkpt><trkpt lat="42.9436033" lon="10.779845"><ele>29.0</ele><time>2026-05-02T13:47:38.583Z</time></trkpt><trkpt lat="42.9437717" lon="10.7798717"><ele>29.0</ele><time>2026-05-02T13:47:39.582Z</time></trkpt><trkpt lat="42.94394" lon="10.77991"><ele>29.0</ele><time>2026-05-02T13:47:40.584Z</time></trkpt><trkpt lat="42.9441083" lon="10.77995"><ele>29.0</ele><time>2026-05-02T13:47:41.581Z</time></trkpt><trkpt lat="42.9442767" lon="10.7799933"><ele>29.333333333333332</ele><time>2026-05-02T13:47:42.582Z</time></trkpt><trkpt lat="42.9444483" lon="10.7800367"><ele>29.666666666666664</ele><time>2026-05-02T13:47:43.58Z</time></trkpt><trkpt lat="42.94462" lon="10.7800767"><ele>30.0</ele><time>2026-05-02T13:47:44.581Z</time></trkpt><trkpt lat="42.944795" lon="10.7801117"><ele>30.0</ele><time>2026-05-02T13:47:45.579Z</time></trkpt><trkpt lat="42.9449717" lon="10.78015"><ele>30.0</ele><time>2026-05-02T13:47:46.579Z</time></trkpt><trkpt lat="42.9451483" lon="10.7801917"><ele>30.0</ele><time>2026-05-02T13:47:47.58Z</time></trkpt><trkpt lat="42.9453217" lon="10.78023"><ele>30.0</ele><time>2026-05-02T13:47:48.583Z</time></trkpt><trkpt lat="42.9454933" lon="10.780265"><ele>30.0</ele><time>2026-05-02T13:47:49.583Z</time></trkpt><trkpt lat="42.9456633" lon="10.780295"><ele>30.0</ele><time>2026-05-02T13:47:50.58Z</time></trkpt><trkpt lat="42.9458333" lon="10.780335"><ele>30.333333333333336</ele><time>2026-05-02T13:47:51.584Z</time></trkpt><trkpt lat="42.9460017" lon="10.7803717"><ele>30.666666666666668</ele><time>2026-05-02T13:47:52.583Z</time></trkpt><trkpt lat="42.946175" lon="10.7804117"><ele>31.0</ele><time>2026-05-02T13:47:53.579Z</time></trkpt><trkpt lat="42.94635" lon="10.7804483"><ele>31.0</ele><time>2026-05-02T13:47:54.58Z</time></trkpt><trkpt lat="42.9465233" lon="10.7804883"><ele>31.0</ele><time>2026-05-02T13:47:55.58Z</time></trkpt><trkpt lat="42.9467017" lon="10.7805267"><ele>31.0</ele><time>2026-05-02T13:47:56.58Z</time></trkpt><trkpt lat="42.9468833" lon="10.7805683"><ele>30.666666666666668</ele><time>2026-05-02T13:47:57.579Z</time></trkpt><trkpt lat="42.947065" lon="10.7806167"><ele>30.333333333333336</ele><time>2026-05-02T13:47:58.579Z</time></trkpt><trkpt lat="42.947245" lon="10.78066"><ele>30.0</ele><time>2026-05-02T13:47:59.58Z</time></trkpt><trkpt lat="42.9474283" lon="10.7807017"><ele>30.333333333333336</ele><time>2026-05-02T13:48:00.58Z</time></trkpt><trkpt lat="42.9476133" lon="10.780745"><ele>30.666666666666668</ele><time>2026-05-02T13:48:01.584Z</time></trkpt><trkpt lat="42.9478" lon="10.78079"><ele>31.0</ele><time>2026-05-02T13:48:02.584Z</time></trkpt><trkpt lat="42.9479833" lon="10.780845"><ele>31.0</ele><time>2026-05-02T13:48:03.582Z</time></trkpt><trkpt lat="42.9481683" lon="10.78091"><ele>31.0</ele><time>2026-05-02T13:48:04.58Z</time></trkpt><trkpt lat="42.9483517" lon="10.7809867"><ele>31.0</ele><time>2026-05-02T13:48:05.581Z</time></trkpt><trkpt lat="42.9485317" lon="10.7810833"><ele>31.666666666666668</ele><time>2026-05-02T13:48:06.579Z</time></trkpt><trkpt lat="42.9487067" lon="10.7812"><ele>32.333333333333336</ele><time>2026-05-02T13:48:07.58Z</time></trkpt><trkpt lat="42.94888" lon="10.7813383"><ele>33.0</ele><time>2026-05-02T13:48:08.58Z</time></trkpt><trkpt lat="42.949045" lon="10.7815"><ele>33.0</ele><time>2026-05-02T13:48:09.579Z</time></trkpt><trkpt lat="42.949195" lon="10.7816817"><ele>33.0</ele><time>2026-05-02T13:48:10.58Z</time></trkpt><trkpt lat="42.9493333" lon="10.7818817"><ele>33.0</ele><time>2026-05-02T13:48:11.581Z</time></trkpt><trkpt lat="42.9494583" lon="10.7821117"><ele>32.333333333333336</ele><time>2026-05-02T13:48:12.579Z</time></trkpt><trkpt lat="42.9495717" lon="10.7823617"><ele>31.666666666666668</ele><time>2026-05-02T13:48:13.58Z</time></trkpt><trkpt lat="42.9496783" lon="10.7826233"><ele>31.0</ele><time>2026-05-02T13:48:14.58Z</time></trkpt><trkpt lat="42.94977" lon="10.7829"><ele>29.5</ele><time>2026-05-02T13:48:15.579Z</time></trkpt><trkpt lat="42.94985" lon="10.7831867"><ele>28.0</ele><time>2026-05-02T13:48:16.579Z</time></trkpt><trkpt lat="42.9499183" lon="10.78348"><ele>28.5</ele><time>2026-05-02T13:48:17.58Z</time></trkpt><trkpt lat="42.9499867" lon="10.7837733"><ele>29.0</ele><time>2026-05-02T13:48:18.58Z</time></trkpt><trkpt lat="42.9500533" lon="10.7840683"><ele>27.5</ele><time>2026-05-02T13:48:19.581Z</time></trkpt><trkpt lat="42.9501233" lon="10.7843617"><ele>26.0</ele><time>2026-05-02T13:48:20.58Z</time></trkpt><trkpt lat="42.950195" lon="10.7846517"><ele>26.0</ele><time>2026-05-02T13:48:21.58Z</time></trkpt><trkpt lat="42.95026" lon="10.78493"><ele>26.0</ele><time>2026-05-02T13:48:22.583Z</time></trkpt><trkpt lat="42.95039" lon="10.7854617"><ele>26.0</ele><time>2026-05-02T13:48:24.581Z</time></trkpt></trkseg></trk></gpx>